sensor_id;sensor_type;location;lat;lon;timestamp;P1;durP1;ratioP1;P2;durP2;ratioP2
23159;SDS011;11748;50.844;4.396;2022-12-17T00:01:26;59.40;;;34.05;;
23159;SDS011;11748;50.844;4.396;2022-12-17T00:04:10;53.75;;;32.35;;
23159;SDS011;11748;50.844;4.396;2022-12-17T00:06:54;51.13;;;31.52;;
23159;SDS011;11748;50.844;4.396;2022-12-17T00:09:39;55.53;;;33.38;;
23159;SDS011;11748;50.844;4.396;2022-12-17T00:12:23;53.60;;;32.10;;
23159;SDS011;11748;50.844;4.396;2022-12-17T00:15:08;54.35;;;33.00;;
23159;SDS011;11748;50.844;4.396;2022-12-17T00:17:52;56.65;;;33.50;;
23159;SDS011;11748;50.844;4.396;2022-12-17T00:20:50;57.78;;;32.83;;
23159;SDS011;11748;50.844;4.396;2022-12-17T00:23:35;54.92;;;32.63;;
23159;SDS011;11748;50.844;4.396;2022-12-17T00:26:19;57.60;;;33.80;;
23159;SDS011;11748;50.844;4.396;2022-12-17T00:29:03;54.85;;;32.65;;
23159;SDS011;11748;50.844;4.396;2022-12-17T00:31:49;52.50;;;31.02;;
23159;SDS011;11748;50.844;4.396;2022-12-17T00:34:33;47.95;;;29.92;;
23159;SDS011;11748;50.844;4.396;2022-12-17T00:37:17;48.42;;;29.23;;
23159;SDS011;11748;50.844;4.396;2022-12-17T00:40:01;47.30;;;28.75;;
23159;SDS011;11748;50.844;4.396;2022-12-17T00:42:46;48.88;;;27.92;;
23159;SDS011;11748;50.844;4.396;2022-12-17T00:45:30;43.25;;;28.17;;
23159;SDS011;11748;50.844;4.396;2022-12-17T00:48:14;46.58;;;27.90;;
23159;SDS011;11748;50.844;4.396;2022-12-17T00:50:58;44.33;;;27.60;;
23159;SDS011;11748;50.844;4.396;2022-12-17T00:53:42;44.65;;;26.75;;
23159;SDS011;11748;50.844;4.396;2022-12-17T00:56:26;41.45;;;26.95;;
23159;SDS011;11748;50.844;4.396;2022-12-17T00:59:10;44.17;;;26.83;;
23159;SDS011;11748;50.844;4.396;2022-12-17T01:01:55;46.08;;;28.75;;
23159;SDS011;11748;50.844;4.396;2022-12-17T01:04:39;43.10;;;26.88;;
23159;SDS011;11748;50.844;4.396;2022-12-17T01:07:23;45.50;;;27.15;;
23159;SDS011;11748;50.844;4.396;2022-12-17T01:10:07;41.42;;;27.33;;
23159;SDS011;11748;50.844;4.396;2022-12-17T01:12:51;47.50;;;27.73;;
23159;SDS011;11748;50.844;4.396;2022-12-17T01:15:35;44.17;;;26.65;;
23159;SDS011;11748;50.844;4.396;2022-12-17T01:18:20;41.42;;;25.10;;
23159;SDS011;11748;50.844;4.396;2022-12-17T01:21:04;37.78;;;24.45;;
23159;SDS011;11748;50.844;4.396;2022-12-17T01:23:48;40.83;;;26.42;;
23159;SDS011;11748;50.844;4.396;2022-12-17T01:26:32;41.90;;;26.60;;
23159;SDS011;11748;50.844;4.396;2022-12-17T01:29:16;41.97;;;25.65;;
23159;SDS011;11748;50.844;4.396;2022-12-17T01:32:00;38.10;;;26.35;;
23159;SDS011;11748;50.844;4.396;2022-12-17T01:34:44;36.78;;;24.85;;
23159;SDS011;11748;50.844;4.396;2022-12-17T01:37:28;39.38;;;24.83;;
23159;SDS011;11748;50.844;4.396;2022-12-17T01:40:13;37.97;;;23.55;;
23159;SDS011;11748;50.844;4.396;2022-12-17T01:42:58;40.13;;;25.70;;
23159;SDS011;11748;50.844;4.396;2022-12-17T01:45:42;45.03;;;25.55;;
23159;SDS011;11748;50.844;4.396;2022-12-17T01:48:33;37.22;;;24.33;;
23159;SDS011;11748;50.844;4.396;2022-12-17T01:51:29;37.65;;;24.15;;
23159;SDS011;11748;50.844;4.396;2022-12-17T01:54:15;41.58;;;25.67;;
23159;SDS011;11748;50.844;4.396;2022-12-17T01:57:01;37.08;;;24.88;;
23159;SDS011;11748;50.844;4.396;2022-12-17T02:00:00;39.80;;;25.08;;
23159;SDS011;11748;50.844;4.396;2022-12-17T02:02:50;42.70;;;25.50;;
23159;SDS011;11748;50.844;4.396;2022-12-17T02:05:40;39.70;;;25.92;;
23159;SDS011;11748;50.844;4.396;2022-12-17T02:17:14;37.90;;;25.05;;
23159;SDS011;11748;50.844;4.396;2022-12-17T02:23:28;35.25;;;23.80;;
23159;SDS011;11748;50.844;4.396;2022-12-17T02:26:36;35.45;;;23.50;;
23159;SDS011;11748;50.844;4.396;2022-12-17T02:29:24;35.80;;;23.52;;
23159;SDS011;11748;50.844;4.396;2022-12-17T02:32:11;32.88;;;22.83;;
23159;SDS011;11748;50.844;4.396;2022-12-17T02:34:57;37.53;;;23.95;;
23159;SDS011;11748;50.844;4.396;2022-12-17T02:37:45;40.20;;;23.40;;
23159;SDS011;11748;50.844;4.396;2022-12-17T02:40:32;36.55;;;23.83;;
23159;SDS011;11748;50.844;4.396;2022-12-17T02:43:19;40.00;;;24.23;;
23159;SDS011;11748;50.844;4.396;2022-12-17T02:46:06;36.22;;;24.67;;
23159;SDS011;11748;50.844;4.396;2022-12-17T02:48:51;39.38;;;26.25;;
23159;SDS011;11748;50.844;4.396;2022-12-17T02:51:35;39.60;;;24.95;;
23159;SDS011;11748;50.844;4.396;2022-12-17T02:54:27;36.88;;;24.35;;
23159;SDS011;11748;50.844;4.396;2022-12-17T02:57:12;38.30;;;24.38;;
23159;SDS011;11748;50.844;4.396;2022-12-17T02:59:56;39.83;;;25.80;;
23159;SDS011;11748;50.844;4.396;2022-12-17T03:02:40;36.72;;;24.13;;
23159;SDS011;11748;50.844;4.396;2022-12-17T03:05:25;35.58;;;23.75;;
23159;SDS011;11748;50.844;4.396;2022-12-17T03:08:09;38.08;;;23.65;;
23159;SDS011;11748;50.844;4.396;2022-12-17T03:10:53;38.65;;;25.98;;
23159;SDS011;11748;50.844;4.396;2022-12-17T03:13:37;38.22;;;24.73;;
23159;SDS011;11748;50.844;4.396;2022-12-17T03:16:21;37.47;;;23.75;;
23159;SDS011;11748;50.844;4.396;2022-12-17T03:19:05;36.88;;;24.02;;
23159;SDS011;11748;50.844;4.396;2022-12-17T03:21:51;36.90;;;23.95;;
23159;SDS011;11748;50.844;4.396;2022-12-17T03:24:35;37.47;;;23.65;;
23159;SDS011;11748;50.844;4.396;2022-12-17T03:27:20;36.17;;;22.60;;
23159;SDS011;11748;50.844;4.396;2022-12-17T03:30:04;37.97;;;22.75;;
23159;SDS011;11748;50.844;4.396;2022-12-17T03:32:48;37.53;;;23.65;;
23159;SDS011;11748;50.844;4.396;2022-12-17T03:35:32;37.10;;;23.02;;
23159;SDS011;11748;50.844;4.396;2022-12-17T03:38:17;37.75;;;23.02;;
23159;SDS011;11748;50.844;4.396;2022-12-17T03:41:01;40.75;;;23.98;;
23159;SDS011;11748;50.844;4.396;2022-12-17T03:43:45;37.40;;;23.83;;
23159;SDS011;11748;50.844;4.396;2022-12-17T03:46:29;34.40;;;23.25;;
23159;SDS011;11748;50.844;4.396;2022-12-17T03:49:13;33.70;;;23.13;;
23159;SDS011;11748;50.844;4.396;2022-12-17T03:51:57;34.17;;;22.77;;
23159;SDS011;11748;50.844;4.396;2022-12-17T03:54:41;35.28;;;23.52;;
23159;SDS011;11748;50.844;4.396;2022-12-17T03:57:26;35.53;;;23.15;;
23159;SDS011;11748;50.844;4.396;2022-12-17T04:00:10;37.67;;;23.35;;
23159;SDS011;11748;50.844;4.396;2022-12-17T04:02:54;38.42;;;24.05;;
23159;SDS011;11748;50.844;4.396;2022-12-17T04:05:38;36.20;;;23.38;;
23159;SDS011;11748;50.844;4.396;2022-12-17T04:08:22;35.10;;;24.77;;
23159;SDS011;11748;50.844;4.396;2022-12-17T04:11:07;34.00;;;21.88;;
23159;SDS011;11748;50.844;4.396;2022-12-17T04:13:51;39.20;;;24.48;;
23159;SDS011;11748;50.844;4.396;2022-12-17T04:16:35;37.45;;;22.75;;
23159;SDS011;11748;50.844;4.396;2022-12-17T04:19:19;33.95;;;23.02;;
23159;SDS011;11748;50.844;4.396;2022-12-17T04:22:03;37.03;;;23.42;;
23159;SDS011;11748;50.844;4.396;2022-12-17T04:24:48;33.95;;;23.58;;
23159;SDS011;11748;50.844;4.396;2022-12-17T04:27:32;36.30;;;23.58;;
23159;SDS011;11748;50.844;4.396;2022-12-17T04:30:16;32.85;;;22.33;;
23159;SDS011;11748;50.844;4.396;2022-12-17T04:33:00;36.35;;;22.33;;
23159;SDS011;11748;50.844;4.396;2022-12-17T04:35:44;35.92;;;23.08;;
23159;SDS011;11748;50.844;4.396;2022-12-17T04:38:28;37.17;;;22.55;;
23159;SDS011;11748;50.844;4.396;2022-12-17T04:41:13;35.67;;;23.00;;
23159;SDS011;11748;50.844;4.396;2022-12-17T04:43:57;35.97;;;23.08;;
23159;SDS011;11748;50.844;4.396;2022-12-17T04:46:41;41.60;;;22.52;;
23159;SDS011;11748;50.844;4.396;2022-12-17T04:49:25;35.15;;;22.48;;
23159;SDS011;11748;50.844;4.396;2022-12-17T04:52:09;31.88;;;22.77;;
23159;SDS011;11748;50.844;4.396;2022-12-17T04:54:54;37.63;;;23.73;;
23159;SDS011;11748;50.844;4.396;2022-12-17T04:57:38;37.17;;;23.33;;
23159;SDS011;11748;50.844;4.396;2022-12-17T05:00:22;33.80;;;22.55;;
23159;SDS011;11748;50.844;4.396;2022-12-17T05:03:08;30.77;;;21.65;;
23159;SDS011;11748;50.844;4.396;2022-12-17T05:05:55;36.25;;;22.42;;
23159;SDS011;11748;50.844;4.396;2022-12-17T05:08:40;38.35;;;22.70;;
23159;SDS011;11748;50.844;4.396;2022-12-17T05:11:24;34.72;;;22.85;;
23159;SDS011;11748;50.844;4.396;2022-12-17T05:14:08;35.78;;;21.50;;
23159;SDS011;11748;50.844;4.396;2022-12-17T05:16:52;35.95;;;22.95;;
23159;SDS011;11748;50.844;4.396;2022-12-17T05:19:37;34.25;;;22.50;;
23159;SDS011;11748;50.844;4.396;2022-12-17T05:22:21;35.97;;;22.10;;
23159;SDS011;11748;50.844;4.396;2022-12-17T05:25:05;33.22;;;22.23;;
23159;SDS011;11748;50.844;4.396;2022-12-17T05:27:50;30.80;;;22.13;;
23159;SDS011;11748;50.844;4.396;2022-12-17T05:30:34;33.95;;;22.33;;
23159;SDS011;11748;50.844;4.396;2022-12-17T05:33:18;34.50;;;22.48;;
23159;SDS011;11748;50.844;4.396;2022-12-17T05:36:02;36.47;;;23.40;;
23159;SDS011;11748;50.844;4.396;2022-12-17T05:38:47;33.25;;;22.10;;
23159;SDS011;11748;50.844;4.396;2022-12-17T05:41:48;48.30;;;24.17;;
23159;SDS011;11748;50.844;4.396;2022-12-17T05:44:40;34.13;;;22.20;;
23159;SDS011;11748;50.844;4.396;2022-12-17T05:47:24;37.13;;;22.30;;
23159;SDS011;11748;50.844;4.396;2022-12-17T05:50:08;39.28;;;23.42;;
23159;SDS011;11748;50.844;4.396;2022-12-17T05:52:53;38.13;;;22.98;;
23159;SDS011;11748;50.844;4.396;2022-12-17T05:55:46;36.13;;;23.08;;
23159;SDS011;11748;50.844;4.396;2022-12-17T05:58:31;37.55;;;23.05;;
23159;SDS011;11748;50.844;4.396;2022-12-17T06:01:15;32.72;;;21.63;;
23159;SDS011;11748;50.844;4.396;2022-12-17T06:03:59;35.60;;;21.35;;
23159;SDS011;11748;50.844;4.396;2022-12-17T06:06:43;32.38;;;21.88;;
23159;SDS011;11748;50.844;4.396;2022-12-17T06:09:28;38.63;;;23.27;;
23159;SDS011;11748;50.844;4.396;2022-12-17T06:12:12;34.28;;;21.75;;
23159;SDS011;11748;50.844;4.396;2022-12-17T06:14:56;36.17;;;21.67;;
23159;SDS011;11748;50.844;4.396;2022-12-17T06:17:40;36.45;;;22.38;;
23159;SDS011;11748;50.844;4.396;2022-12-17T06:20:24;33.78;;;22.70;;
23159;SDS011;11748;50.844;4.396;2022-12-17T06:23:09;33.47;;;22.25;;
23159;SDS011;11748;50.844;4.396;2022-12-17T06:25:54;32.85;;;21.80;;
23159;SDS011;11748;50.844;4.396;2022-12-17T06:28:39;33.35;;;21.95;;
23159;SDS011;11748;50.844;4.396;2022-12-17T06:31:24;37.65;;;23.70;;
23159;SDS011;11748;50.844;4.396;2022-12-17T06:34:10;38.58;;;23.00;;
23159;SDS011;11748;50.844;4.396;2022-12-17T06:36:54;36.67;;;23.52;;
23159;SDS011;11748;50.844;4.396;2022-12-17T06:39:39;35.28;;;23.77;;
23159;SDS011;11748;50.844;4.396;2022-12-17T06:42:23;36.50;;;22.70;;
23159;SDS011;11748;50.844;4.396;2022-12-17T06:45:07;37.92;;;23.27;;
23159;SDS011;11748;50.844;4.396;2022-12-17T06:47:51;33.20;;;22.35;;
23159;SDS011;11748;50.844;4.396;2022-12-17T06:50:43;39.20;;;22.75;;
23159;SDS011;11748;50.844;4.396;2022-12-17T06:53:27;35.33;;;23.20;;
23159;SDS011;11748;50.844;4.396;2022-12-17T06:56:11;35.08;;;21.95;;
23159;SDS011;11748;50.844;4.396;2022-12-17T06:58:55;39.58;;;23.65;;
23159;SDS011;11748;50.844;4.396;2022-12-17T07:01:39;34.50;;;22.00;;
23159;SDS011;11748;50.844;4.396;2022-12-17T07:04:24;33.65;;;21.85;;
23159;SDS011;11748;50.844;4.396;2022-12-17T07:07:08;34.35;;;21.80;;
23159;SDS011;11748;50.844;4.396;2022-12-17T07:09:52;34.45;;;22.40;;
23159;SDS011;11748;50.844;4.396;2022-12-17T07:12:36;34.30;;;22.10;;
23159;SDS011;11748;50.844;4.396;2022-12-17T07:15:20;35.67;;;21.77;;
23159;SDS011;11748;50.844;4.396;2022-12-17T07:18:04;36.25;;;23.92;;
23159;SDS011;11748;50.844;4.396;2022-12-17T07:20:51;40.05;;;22.58;;
23159;SDS011;11748;50.844;4.396;2022-12-17T07:23:35;37.42;;;23.92;;
23159;SDS011;11748;50.844;4.396;2022-12-17T07:26:20;37.88;;;23.33;;
23159;SDS011;11748;50.844;4.396;2022-12-17T07:29:04;38.20;;;22.58;;
23159;SDS011;11748;50.844;4.396;2022-12-17T07:31:48;69.28;;;46.53;;
23159;SDS011;11748;50.844;4.396;2022-12-17T07:34:33;37.65;;;23.95;;
23159;SDS011;11748;50.844;4.396;2022-12-17T07:37:17;38.38;;;22.67;;
23159;SDS011;11748;50.844;4.396;2022-12-17T07:40:01;37.15;;;23.77;;
23159;SDS011;11748;50.844;4.396;2022-12-17T07:42:46;43.95;;;23.73;;
23159;SDS011;11748;50.844;4.396;2022-12-17T07:45:30;36.10;;;22.85;;
23159;SDS011;11748;50.844;4.396;2022-12-17T07:48:14;38.97;;;23.85;;
23159;SDS011;11748;50.844;4.396;2022-12-17T07:50:58;38.50;;;23.88;;
23159;SDS011;11748;50.844;4.396;2022-12-17T07:53:42;48.20;;;27.83;;
23159;SDS011;11748;50.844;4.396;2022-12-17T07:56:27;41.23;;;24.23;;
23159;SDS011;11748;50.844;4.396;2022-12-17T07:59:11;37.88;;;23.15;;
23159;SDS011;11748;50.844;4.396;2022-12-17T08:01:55;39.72;;;24.52;;
23159;SDS011;11748;50.844;4.396;2022-12-17T08:04:39;37.75;;;23.38;;
23159;SDS011;11748;50.844;4.396;2022-12-17T08:07:25;41.42;;;25.17;;
23159;SDS011;11748;50.844;4.396;2022-12-17T08:10:09;40.65;;;22.83;;
23159;SDS011;11748;50.844;4.396;2022-12-17T08:12:54;42.17;;;24.20;;
23159;SDS011;11748;50.844;4.396;2022-12-17T08:15:43;42.30;;;24.65;;
23159;SDS011;11748;50.844;4.396;2022-12-17T08:18:27;37.75;;;23.58;;
23159;SDS011;11748;50.844;4.396;2022-12-17T08:21:12;45.88;;;25.52;;
23159;SDS011;11748;50.844;4.396;2022-12-17T08:23:57;42.92;;;25.85;;
23159;SDS011;11748;50.844;4.396;2022-12-17T08:26:41;47.58;;;25.42;;
23159;SDS011;11748;50.844;4.396;2022-12-17T08:29:25;40.05;;;23.23;;
23159;SDS011;11748;50.844;4.396;2022-12-17T08:32:09;40.75;;;23.73;;
23159;SDS011;11748;50.844;4.396;2022-12-17T08:34:54;40.50;;;24.73;;
23159;SDS011;11748;50.844;4.396;2022-12-17T08:37:38;40.47;;;25.27;;
23159;SDS011;11748;50.844;4.396;2022-12-17T08:40:22;43.90;;;26.30;;
23159;SDS011;11748;50.844;4.396;2022-12-17T08:43:06;47.80;;;25.98;;
23159;SDS011;11748;50.844;4.396;2022-12-17T08:45:50;43.03;;;25.60;;
23159;SDS011;11748;50.844;4.396;2022-12-17T08:51:21;47.28;;;26.38;;
23159;SDS011;11748;50.844;4.396;2022-12-17T08:54:06;46.03;;;27.10;;
23159;SDS011;11748;50.844;4.396;2022-12-17T08:56:51;47.53;;;27.13;;
23159;SDS011;11748;50.844;4.396;2022-12-17T08:59:35;45.67;;;28.48;;
23159;SDS011;11748;50.844;4.396;2022-12-17T09:02:20;46.28;;;28.73;;
23159;SDS011;11748;50.844;4.396;2022-12-17T09:05:05;53.60;;;28.42;;
23159;SDS011;11748;50.844;4.396;2022-12-17T09:07:56;45.80;;;27.50;;
23159;SDS011;11748;50.844;4.396;2022-12-17T09:10:44;45.35;;;27.95;;
23159;SDS011;11748;50.844;4.396;2022-12-17T09:13:28;51.13;;;27.95;;
23159;SDS011;11748;50.844;4.396;2022-12-17T09:16:13;53.55;;;29.27;;
23159;SDS011;11748;50.844;4.396;2022-12-17T09:18:57;49.85;;;27.88;;
23159;SDS011;11748;50.844;4.396;2022-12-17T09:21:41;43.17;;;26.65;;
23159;SDS011;11748;50.844;4.396;2022-12-17T09:24:25;48.03;;;28.55;;
23159;SDS011;11748;50.844;4.396;2022-12-17T09:27:09;51.47;;;27.85;;
23159;SDS011;11748;50.844;4.396;2022-12-17T09:29:53;47.60;;;27.23;;
23159;SDS011;11748;50.844;4.396;2022-12-17T09:32:37;47.30;;;27.52;;
23159;SDS011;11748;50.844;4.396;2022-12-17T09:35:22;52.63;;;30.00;;
23159;SDS011;11748;50.844;4.396;2022-12-17T09:38:07;56.10;;;31.27;;
23159;SDS011;11748;50.844;4.396;2022-12-17T09:41:20;51.03;;;27.60;;
23159;SDS011;11748;50.844;4.396;2022-12-17T09:44:21;50.55;;;27.85;;
23159;SDS011;11748;50.844;4.396;2022-12-17T09:47:30;51.03;;;27.90;;
23159;SDS011;11748;50.844;4.396;2022-12-17T09:50:24;49.17;;;28.38;;
23159;SDS011;11748;50.844;4.396;2022-12-17T09:53:33;47.72;;;28.85;;
23159;SDS011;11748;50.844;4.396;2022-12-17T09:56:25;48.42;;;27.70;;
23159;SDS011;11748;50.844;4.396;2022-12-17T09:59:33;52.83;;;28.25;;
23159;SDS011;11748;50.844;4.396;2022-12-17T10:02:19;46.92;;;27.83;;
23159;SDS011;11748;50.844;4.396;2022-12-17T10:05:12;45.03;;;25.70;;
23159;SDS011;11748;50.844;4.396;2022-12-17T10:08:02;47.78;;;27.67;;
23159;SDS011;11748;50.844;4.396;2022-12-17T10:10:48;49.75;;;26.95;;
23159;SDS011;11748;50.844;4.396;2022-12-17T10:13:32;49.42;;;27.52;;
23159;SDS011;11748;50.844;4.396;2022-12-17T10:16:18;45.85;;;26.38;;
23159;SDS011;11748;50.844;4.396;2022-12-17T10:19:22;52.15;;;27.23;;
23159;SDS011;11748;50.844;4.396;2022-12-17T10:22:13;49.38;;;26.17;;
23159;SDS011;11748;50.844;4.396;2022-12-17T10:25:05;50.00;;;28.77;;
23159;SDS011;11748;50.844;4.396;2022-12-17T10:28:00;47.58;;;27.20;;
23159;SDS011;11748;50.844;4.396;2022-12-17T10:30:48;48.70;;;26.77;;
23159;SDS011;11748;50.844;4.396;2022-12-17T10:33:38;48.80;;;27.80;;
23159;SDS011;11748;50.844;4.396;2022-12-17T10:36:24;50.53;;;27.65;;
23159;SDS011;11748;50.844;4.396;2022-12-17T10:39:17;45.88;;;26.95;;
23159;SDS011;11748;50.844;4.396;2022-12-17T10:42:25;50.88;;;27.40;;
23159;SDS011;11748;50.844;4.396;2022-12-17T10:48:01;45.30;;;27.17;;
23159;SDS011;11748;50.844;4.396;2022-12-17T10:50:45;50.40;;;27.95;;
23159;SDS011;11748;50.844;4.396;2022-12-17T10:53:37;46.35;;;26.45;;
23159;SDS011;11748;50.844;4.396;2022-12-17T10:56:24;52.40;;;28.53;;
23159;SDS011;11748;50.844;4.396;2022-12-17T10:59:12;51.20;;;28.40;;
23159;SDS011;11748;50.844;4.396;2022-12-17T11:02:11;50.75;;;27.58;;
23159;SDS011;11748;50.844;4.396;2022-12-17T11:05:02;47.70;;;28.05;;
23159;SDS011;11748;50.844;4.396;2022-12-17T11:07:55;45.97;;;27.75;;
23159;SDS011;11748;50.844;4.396;2022-12-17T11:10:42;49.42;;;28.00;;
23159;SDS011;11748;50.844;4.396;2022-12-17T11:13:33;44.60;;;27.00;;
23159;SDS011;11748;50.844;4.396;2022-12-17T11:16:42;51.28;;;28.80;;
23159;SDS011;11748;50.844;4.396;2022-12-17T11:22:43;51.30;;;29.10;;
23159;SDS011;11748;50.844;4.396;2022-12-17T11:25:41;47.90;;;29.55;;
23159;SDS011;11748;50.844;4.396;2022-12-17T11:28:47;51.00;;;28.30;;
23159;SDS011;11748;50.844;4.396;2022-12-17T11:50:02;46.80;;;28.35;;
23159;SDS011;11748;50.844;4.396;2022-12-17T11:53:18;52.80;;;28.73;;
23159;SDS011;11748;50.844;4.396;2022-12-17T11:56:23;45.65;;;27.85;;
23159;SDS011;11748;50.844;4.396;2022-12-17T12:05:41;45.50;;;26.48;;
23159;SDS011;11748;50.844;4.396;2022-12-17T12:08:36;49.63;;;28.17;;
23159;SDS011;11748;50.844;4.396;2022-12-17T12:11:26;49.90;;;30.23;;
23159;SDS011;11748;50.844;4.396;2022-12-17T12:29:07;46.15;;;28.25;;
23159;SDS011;11748;50.844;4.396;2022-12-17T12:32:25;42.58;;;26.42;;
23159;SDS011;11748;50.844;4.396;2022-12-17T12:35:27;42.13;;;26.10;;
23159;SDS011;11748;50.844;4.396;2022-12-17T12:38:15;43.05;;;24.42;;
23159;SDS011;11748;50.844;4.396;2022-12-17T12:44:29;40.90;;;25.00;;
23159;SDS011;11748;50.844;4.396;2022-12-17T12:47:24;39.55;;;23.90;;
23159;SDS011;11748;50.844;4.396;2022-12-17T12:53:36;37.83;;;23.10;;
23159;SDS011;11748;50.844;4.396;2022-12-17T12:56:24;38.83;;;22.83;;
23159;SDS011;11748;50.844;4.396;2022-12-17T13:02:28;41.67;;;24.27;;
23159;SDS011;11748;50.844;4.396;2022-12-17T13:05:37;46.60;;;25.50;;
23159;SDS011;11748;50.844;4.396;2022-12-17T13:10:33;38.40;;;23.83;;
23159;SDS011;11748;50.844;4.396;2022-12-17T13:13:10;39.22;;;24.10;;
23159;SDS011;11748;50.844;4.396;2022-12-17T13:15:47;47.13;;;25.67;;
23159;SDS011;11748;50.844;4.396;2022-12-17T13:21:01;45.33;;;25.08;;
23159;SDS011;11748;50.844;4.396;2022-12-17T13:28:39;46.58;;;24.48;;
23159;SDS011;11748;50.844;4.396;2022-12-17T13:31:13;42.58;;;24.80;;
23159;SDS011;11748;50.844;4.396;2022-12-17T13:36:56;43.05;;;24.73;;
23159;SDS011;11748;50.844;4.396;2022-12-17T13:42:43;45.88;;;24.98;;
23159;SDS011;11748;50.844;4.396;2022-12-17T13:45:11;46.05;;;25.73;;
23159;SDS011;11748;50.844;4.396;2022-12-17T13:47:51;41.80;;;24.48;;
23159;SDS011;11748;50.844;4.396;2022-12-17T13:50:20;43.13;;;24.52;;
23159;SDS011;11748;50.844;4.396;2022-12-17T13:52:55;47.58;;;26.05;;
23159;SDS011;11748;50.844;4.396;2022-12-17T13:55:25;44.22;;;25.27;;
23159;SDS011;11748;50.844;4.396;2022-12-17T13:57:51;46.78;;;24.55;;
23159;SDS011;11748;50.844;4.396;2022-12-17T14:00:22;46.42;;;25.98;;
23159;SDS011;11748;50.844;4.396;2022-12-17T14:02:50;44.08;;;24.88;;
23159;SDS011;11748;50.844;4.396;2022-12-17T14:05:21;45.10;;;24.98;;
23159;SDS011;11748;50.844;4.396;2022-12-17T14:07:47;47.15;;;25.08;;
23159;SDS011;11748;50.844;4.396;2022-12-17T14:10:14;46.53;;;25.58;;
23159;SDS011;11748;50.844;4.396;2022-12-17T14:12:41;45.38;;;24.40;;
23159;SDS011;11748;50.844;4.396;2022-12-17T14:15:10;43.22;;;24.42;;
23159;SDS011;11748;50.844;4.396;2022-12-17T14:17:48;47.58;;;24.40;;
23159;SDS011;11748;50.844;4.396;2022-12-17T14:20:16;43.50;;;22.88;;
23159;SDS011;11748;50.844;4.396;2022-12-17T14:22:51;39.72;;;23.00;;
23159;SDS011;11748;50.844;4.396;2022-12-17T14:25:20;40.83;;;23.10;;
23159;SDS011;11748;50.844;4.396;2022-12-17T14:27:49;38.63;;;21.27;;
23159;SDS011;11748;50.844;4.396;2022-12-17T14:30:36;39.60;;;23.08;;
23159;SDS011;11748;50.844;4.396;2022-12-17T14:33:04;45.63;;;23.83;;
23159;SDS011;11748;50.844;4.396;2022-12-17T14:35:50;39.92;;;22.80;;
23159;SDS011;11748;50.844;4.396;2022-12-17T14:38:17;47.20;;;24.58;;
23159;SDS011;11748;50.844;4.396;2022-12-17T14:40:44;47.08;;;25.30;;
23159;SDS011;11748;50.844;4.396;2022-12-17T14:43:10;50.30;;;27.10;;
23159;SDS011;11748;50.844;4.396;2022-12-17T14:45:38;51.72;;;25.98;;
23159;SDS011;11748;50.844;4.396;2022-12-17T14:48:32;45.42;;;25.25;;
23159;SDS011;11748;50.844;4.396;2022-12-17T14:51:21;48.60;;;26.30;;
23159;SDS011;11748;50.844;4.396;2022-12-17T14:53:51;50.88;;;27.35;;
23159;SDS011;11748;50.844;4.396;2022-12-17T14:56:21;56.50;;;31.13;;
23159;SDS011;11748;50.844;4.396;2022-12-17T14:58:47;60.80;;;31.52;;
23159;SDS011;11748;50.844;4.396;2022-12-17T15:01:13;57.58;;;31.58;;
23159;SDS011;11748;50.844;4.396;2022-12-17T15:03:41;63.33;;;31.65;;
23159;SDS011;11748;50.844;4.396;2022-12-17T15:06:09;62.28;;;34.17;;
23159;SDS011;11748;50.844;4.396;2022-12-17T15:08:55;64.85;;;34.92;;
23159;SDS011;11748;50.844;4.396;2022-12-17T15:11:21;69.25;;;34.75;;
23159;SDS011;11748;50.844;4.396;2022-12-17T15:13:48;64.13;;;33.90;;
23159;SDS011;11748;50.844;4.396;2022-12-17T15:16:13;70.50;;;36.83;;
23159;SDS011;11748;50.844;4.396;2022-12-17T15:18:39;68.50;;;34.50;;
23159;SDS011;11748;50.844;4.396;2022-12-17T15:21:05;64.63;;;34.03;;
23159;SDS011;11748;50.844;4.396;2022-12-17T15:23:31;64.28;;;35.15;;
23159;SDS011;11748;50.844;4.396;2022-12-17T15:25:57;59.90;;;33.47;;
23159;SDS011;11748;50.844;4.396;2022-12-17T15:28:23;63.53;;;33.65;;
23159;SDS011;11748;50.844;4.396;2022-12-17T15:30:49;60.88;;;32.67;;
23159;SDS011;11748;50.844;4.396;2022-12-17T15:33:16;66.90;;;35.50;;
23159;SDS011;11748;50.844;4.396;2022-12-17T15:35:42;66.65;;;34.85;;
23159;SDS011;11748;50.844;4.396;2022-12-17T15:38:08;69.53;;;35.72;;
23159;SDS011;11748;50.844;4.396;2022-12-17T15:40:36;66.65;;;35.28;;
23159;SDS011;11748;50.844;4.396;2022-12-17T15:43:02;77.43;;;39.03;;
23159;SDS011;11748;50.844;4.396;2022-12-17T15:45:38;70.30;;;35.65;;
23159;SDS011;11748;50.844;4.396;2022-12-17T15:48:12;64.82;;;35.08;;
23159;SDS011;11748;50.844;4.396;2022-12-17T15:50:40;65.72;;;34.78;;
23159;SDS011;11748;50.844;4.396;2022-12-17T15:53:05;69.45;;;36.20;;
23159;SDS011;11748;50.844;4.396;2022-12-17T15:55:32;72.32;;;37.63;;
23159;SDS011;11748;50.844;4.396;2022-12-17T15:57:58;66.10;;;35.92;;
23159;SDS011;11748;50.844;4.396;2022-12-17T16:00:23;69.90;;;36.72;;
23159;SDS011;11748;50.844;4.396;2022-12-17T16:02:49;69.93;;;35.70;;
23159;SDS011;11748;50.844;4.396;2022-12-17T16:05:15;63.88;;;34.17;;
23159;SDS011;11748;50.844;4.396;2022-12-17T16:07:41;62.75;;;34.75;;
23159;SDS011;11748;50.844;4.396;2022-12-17T16:10:08;66.65;;;37.13;;
23159;SDS011;11748;50.844;4.396;2022-12-17T16:12:35;70.53;;;36.72;;
23159;SDS011;11748;50.844;4.396;2022-12-17T16:15:01;71.35;;;36.58;;
23159;SDS011;11748;50.844;4.396;2022-12-17T16:17:27;71.35;;;38.08;;
23159;SDS011;11748;50.844;4.396;2022-12-17T16:19:52;72.70;;;38.08;;
23159;SDS011;11748;50.844;4.396;2022-12-17T16:22:18;72.85;;;37.80;;
23159;SDS011;11748;50.844;4.396;2022-12-17T16:24:44;66.25;;;36.25;;
23159;SDS011;11748;50.844;4.396;2022-12-17T16:27:11;71.72;;;38.60;;
23159;SDS011;11748;50.844;4.396;2022-12-17T16:29:37;66.75;;;36.17;;
23159;SDS011;11748;50.844;4.396;2022-12-17T16:32:03;66.22;;;34.03;;
23159;SDS011;11748;50.844;4.396;2022-12-17T16:34:29;64.47;;;33.63;;
23159;SDS011;11748;50.844;4.396;2022-12-17T16:36:55;67.32;;;34.60;;
23159;SDS011;11748;50.844;4.396;2022-12-17T16:39:21;61.63;;;34.28;;
23159;SDS011;11748;50.844;4.396;2022-12-17T16:41:46;64.18;;;33.63;;
23159;SDS011;11748;50.844;4.396;2022-12-17T16:44:12;62.85;;;32.67;;
23159;SDS011;11748;50.844;4.396;2022-12-17T16:46:38;60.95;;;32.53;;
23159;SDS011;11748;50.844;4.396;2022-12-17T16:49:13;63.80;;;33.30;;
23159;SDS011;11748;50.844;4.396;2022-12-17T16:51:41;64.38;;;34.40;;
23159;SDS011;11748;50.844;4.396;2022-12-17T16:54:11;67.45;;;34.55;;
23159;SDS011;11748;50.844;4.396;2022-12-17T16:56:39;61.67;;;33.20;;
23159;SDS011;11748;50.844;4.396;2022-12-17T16:59:06;63.55;;;34.70;;
23159;SDS011;11748;50.844;4.396;2022-12-17T17:01:33;67.30;;;35.55;;
23159;SDS011;11748;50.844;4.396;2022-12-17T17:03:59;60.65;;;32.40;;
23159;SDS011;11748;50.844;4.396;2022-12-17T17:06:25;60.75;;;31.83;;
23159;SDS011;11748;50.844;4.396;2022-12-17T17:08:51;62.15;;;31.63;;
23159;SDS011;11748;50.844;4.396;2022-12-17T17:11:18;61.97;;;31.90;;
23159;SDS011;11748;50.844;4.396;2022-12-17T17:13:46;62.13;;;31.05;;
23159;SDS011;11748;50.844;4.396;2022-12-17T17:16:13;55.33;;;30.02;;